Alta Vista, Kansas
Current Conditions -  °F | °C
As of 11:58 PM on Sunday 21 Dec 2014 (Local Time) from KFRI Reporting Station
Overcast Overcast  
Wind Chill: 38°   Ceiling: 800
Heat Index: 44°   Visibility: 10mi
Dew Point: 44°   Wind: 15mph
Humidity: 100%   Direction: 160°SSE
Pressure: 29.65"   Gusts: NA
Location:  38.86°N, 96.49°W
Report Text: KFRI 220558Z AUTO 16013KT 10SM OVC008 07/07 A2965 RMK AO2 SLP042 60001 T00690069 10071 20067 400730032 57012
Loading
Personal Weather Stations






























Interactive Weather Map New forecast layout! Learn more

10-Day Weather Forecast

Advertisements
Track Severe Weather on mobile